Time;durP1;ratioP1;P1;durP2;ratioP2;P2;SDS_P1;SDS_P2;PMS_P1;PMS_P2;Temp;Humidity;BMP_temperature;BMP_pressure;BME280_temperature;BME280_humidity;BME280_pressure;Samples;Min_cycle;Max_cycle;Signal;HPM_P1;HPM_P2
2022/08/10 00:00:40;;;;;;;;;;;;;;;;;;5047496;28;19923;-79
2022/08/10 00:03:08;;;;;;;;;;;;;;;;;;5049572;28;20529;-77
2022/08/10 00:05:34;;;;;;;;;;;;;;;;;;5046316;28;20361;-80
2022/08/10 00:08:01;;;;;;;;;;;;;;;;;;5045941;28;19942;-80
2022/08/10 00:10:27;;;;;;;;;;;;;;;;;;5031745;28;19927;-80
2022/08/10 00:12:53;;;;;;;;;;;;;;;;;;5043803;28;19912;-81
2022/08/10 00:15:19;;;;;;;;;;;;;;;;;;5047544;28;19916;-81
2022/08/10 00:17:45;;;;;;;;;;;;;;;;;;5030776;28;19923;-80
2022/08/10 00:20:11;;;;;;;;;;;;;;;;;;5030735;28;19909;-82
2022/08/10 00:22:37;;;;;;;;;;;;;;;;;;5048580;28;20368;-81
2022/08/10 00:25:04;;;;;;;;;;;;;;;;;;5048741;28;19921;-81
2022/08/10 00:27:30;;;;;;;;;;;;;;;;;;5048871;28;19919;-79
2022/08/10 00:29:56;;;;;;;;;;;;;;;;;;5042742;28;19917;-82
2022/08/10 00:32:22;;;;;;;;;;;;;;;;;;5041049;28;19927;-82
2022/08/10 00:34:48;;;;;;;;;;;;;;;;;;5045332;28;19909;-82
2022/08/10 00:37:16;;;;;;;;;;;;;;;;;;5045237;28;19917;-83
2022/08/10 00:39:42;;;;;;;;;;;;;;;;;;5044880;28;19912;-82
2022/08/10 00:42:08;;;;;;;;;;;;;;;;;;5025449;28;20552;-83
2022/08/10 00:44:34;;;;;;;;;;;;;;;;;;5026163;28;19935;-80
2022/08/10 00:47:00;;;;;;;;;;;;;;;;;;5050482;28;19920;-81
2022/08/10 00:49:26;;;;;;;;;;;;;;;;;;5051974;28;19913;-82
2022/08/10 00:51:53;;;;;;;;;;;;;;;;;;5050383;28;19908;-82
2022/08/10 00:54:19;;;;;;;;;;;;;;;;;;5036023;28;19920;-82
2022/08/10 00:56:45;;;;;;;;;;;;;;;;;;5052293;28;19913;-81
2022/08/10 00:59:11;;;;;;;;;;;;;;;;;;5051079;28;19921;-80
2022/08/10 01:01:37;;;;;;;;;;;;;;;;;;5054238;28;19916;-82
2022/08/10 01:04:04;;;;;;;;;;;;;;;;;;5052226;28;20272;-81
2022/08/10 01:06:30;;;;;;;;;;;;;;;;;;5049521;28;20252;-82
2022/08/10 01:08:56;;;;;;;;;;;;;;;;;;5042924;28;19931;-82
2022/08/10 01:11:22;;;;;;;;;;;;;;;;;;5049616;28;19916;-82
2022/08/10 01:13:49;;;;;;;;;;;;;;;;;;5046571;28;20447;-81
2022/08/10 01:16:15;;;;;;;;;;;;;;;;;;5050993;28;19931;-82
2022/08/10 01:18:41;;;;;;;;;;;;;;;;;;5046884;28;19913;-82
2022/08/10 01:21:07;;;;;;;;;;;;;;;;;;5030958;28;19913;-82
2022/08/10 01:23:33;;;;;;;;;;;;;;;;;;5051016;28;19913;-82
2022/08/10 01:25:59;;;;;;;;;;;;;;;;;;5043743;28;19949;-81
2022/08/10 01:28:26;;;;;;;;;;;;;;;;;;5043886;28;19909;-82
2022/08/10 01:30:52;;;;;;;;;;;;;;;;;;5043285;28;19929;-83
2022/08/10 01:33:18;;;;;;;;;;;;;;;;;;5047636;28;19919;-83
2022/08/10 01:35:44;;;;;;;;;;;;;;;;;;5046464;28;20475;-82
2022/08/10 01:38:10;;;;;;;;;;;;;;;;;;5049530;28;20280;-81
2022/08/10 01:40:36;;;;;;;;;;;;;;;;;;5052277;28;19920;-82
2022/08/10 01:43:03;;;;;;;;;;;;;;;;;;5052259;28;20277;-82
2022/08/10 01:45:29;;;;;;;;;;;;;;;;;;5047204;28;19918;-82
2022/08/10 01:50:40;;;;;;;;;;;;;;;;;;5044553;28;19913;-84
2022/08/10 01:53:06;;;;;;;;;;;;;;;;;;5028937;28;20558;-81
2022/08/10 01:55:32;;;;;;;;;;;;;;;;;;5032744;28;19939;-83
2022/08/10 01:57:59;;;;;;;;;;;;;;;;;;5046190;28;19913;-82
2022/08/10 02:00:25;;;;;;;;;;;;;;;;;;5049759;28;19909;-82
2022/08/10 02:02:51;;;;;;;;;;;;;;;;;;5047426;28;20403;-82
2022/08/10 02:05:17;;;;;;;;;;;;;;;;;;5037565;28;19921;-81
2022/08/10 02:07:43;;;;;;;;;;;;;;;;;;5047189;28;19917;-80
2022/08/10 02:10:09;;;;;;;;;;;;;;;;;;5051593;28;19925;-80
2022/08/10 02:12:36;;;;;;;;;;;;;;;;;;5039422;28;19927;-80
2022/08/10 02:15:02;;;;;;;;;;;;;;;;;;5047011;28;19932;-80
2022/08/10 02:17:28;;;;;;;;;;;;;;;;;;5047583;28;20293;-81
2022/08/10 02:19:54;;;;;;;;;;;;;;;;;;5047314;28;19943;-81
2022/08/10 02:22:20;;;;;;;;;;;;;;;;;;5034734;28;19917;-83
2022/08/10 02:24:46;;;;;;;;;;;;;;;;;;5050921;28;19913;-82
2022/08/10 02:27:13;;;;;;;;;;;;;;;;;;5048546;28;19920;-82
2022/08/10 02:29:39;;;;;;;;;;;;;;;;;;5052529;28;19919;-84
2022/08/10 02:32:05;;;;;;;;;;;;;;;;;;5045992;28;19921;-83
2022/08/10 02:34:31;;;;;;;;;;;;;;;;;;5032477;28;20670;-82
2022/08/10 02:36:57;;;;;;;;;;;;;;;;;;5049133;28;20295;-82
2022/08/10 02:39:23;;;;;;;;;;;;;;;;;;5033890;28;19909;-81
2022/08/10 02:41:50;;;;;;;;;;;;;;;;;;5047997;28;19909;-80
2022/08/10 02:44:16;;;;;;;;;;;;;;;;;;5046482;28;19923;-79
2022/08/10 02:46:42;;;;;;;;;;;;;;;;;;5042973;28;19929;-79
2022/08/10 02:49:08;;;;;;;;;;;;;;;;;;5049699;28;19912;-79
2022/08/10 02:51:35;;;;;;;;;;;;;;;;;;5043701;28;19915;-80
2022/08/10 02:54:01;;;;;;;;;;;;;;;;;;5047612;28;19917;-81
2022/08/10 02:56:27;;;;;;;;;;;;;;;;;;5051158;28;19916;-80
2022/08/10 02:58:53;;;;;;;;;;;;;;;;;;5044793;28;19919;-82
2022/08/10 03:01:20;;;;;;;;;;;;;;;;;;5048006;28;19913;-81
2022/08/10 03:03:46;;;;;;;;;;;;;;;;;;5049086;28;19923;-80
2022/08/10 03:06:12;;;;;;;;;;;;;;;;;;5049309;28;19927;-80
2022/08/10 03:08:38;;;;;;;;;;;;;;;;;;5047954;28;19951;-80
2022/08/10 03:11:04;;;;;;;;;;;;;;;;;;5047983;28;19931;-80
2022/08/10 03:13:31;;;;;;;;;;;;;;;;;;5044701;28;19913;-81
2022/08/10 03:15:57;;;;;;;;;;;;;;;;;;5031298;28;19912;-82
2022/08/10 03:18:23;;;;;;;;;;;;;;;;;;5029802;28;19909;-81
2022/08/10 03:20:49;;;;;;;;;;;;;;;;;;5039651;28;19939;-82
2022/08/10 03:23:15;;;;;;;;;;;;;;;;;;5047209;28;19923;-81
2022/08/10 03:25:42;;;;;;;;;;;;;;;;;;5038556;28;19917;-81
2022/08/10 03:28:08;;;;;;;;;;;;;;;;;;5040292;28;19908;-81
2022/08/10 03:30:34;;;;;;;;;;;;;;;;;;5044194;28;19909;-81
2022/08/10 03:33:00;;;;;;;;;;;;;;;;;;5050099;28;19920;-80
2022/08/10 03:35:26;;;;;;;;;;;;;;;;;;5042448;28;19921;-81
2022/08/10 03:37:52;;;;;;;;;;;;;;;;;;5050012;28;19920;-81
2022/08/10 03:40:19;;;;;;;;;;;;;;;;;;5043893;28;19913;-83
2022/08/10 03:42:45;;;;;;;;;;;;;;;;;;5049648;28;19931;-80
2022/08/10 03:45:11;;;;;;;;;;;;;;;;;;5047800;28;19924;-82
2022/08/10 03:47:38;;;;;;;;;;;;;;;;;;5045509;28;19916;-81
2022/08/10 03:50:04;;;;;;;;;;;;;;;;;;5045064;28;19917;-81
2022/08/10 03:52:30;;;;;;;;;;;;;;;;;;5043086;28;19923;-80
2022/08/10 03:54:56;;;;;;;;;;;;;;;;;;5029169;28;19913;-81
2022/08/10 03:57:23;;;;;;;;;;;;;;;;;;5047592;28;19913;-81
2022/08/10 03:59:49;;;;;;;;;;;;;;;;;;5042337;28;19909;-80
2022/08/10 04:02:15;;;;;;;;;;;;;;;;;;5040231;28;19913;-80
2022/08/10 04:04:41;;;;;;;;;;;;;;;;;;5050502;28;20300;-80
2022/08/10 04:07:07;;;;;;;;;;;;;;;;;;5048030;28;19925;-81
2022/08/10 04:09:34;;;;;;;;;;;;;;;;;;5046126;28;19935;-81
2022/08/10 04:12:00;;;;;;;;;;;;;;;;;;5048691;28;19913;-81
2022/08/10 04:14:26;;;;;;;;;;;;;;;;;;5046233;28;19913;-81
2022/08/10 04:16:53;;;;;;;;;;;;;;;;;;5029236;28;19913;-80
2022/08/10 04:19:19;;;;;;;;;;;;;;;;;;5045427;28;19915;-82
2022/08/10 04:21:45;;;;;;;;;;;;;;;;;;5049236;28;19915;-83
2022/08/10 04:24:11;;;;;;;;;;;;;;;;;;5043427;28;20524;-81
2022/08/10 04:26:37;;;;;;;;;;;;;;;;;;5044065;28;20739;-77
2022/08/10 04:29:03;;;;;;;;;;;;;;;;;;5050241;28;19920;-80
2022/08/10 04:31:30;;;;;;;;;;;;;;;;;;5046032;28;19917;-80
2022/08/10 04:33:56;;;;;;;;;;;;;;;;;;5044228;28;19909;-81
2022/08/10 04:36:22;;;;;;;;;;;;;;;;;;5031470;28;19921;-76
2022/08/10 04:38:49;;;;;;;;;;;;;;;;;;5047704;28;19913;-80
2022/08/10 04:41:15;;;;;;;;;;;;;;;;;;5048311;28;19916;-80
2022/08/10 04:43:42;;;;;;;;;;;;;;;;;;5046751;28;19917;-80
2022/08/10 04:46:08;;;;;;;;;;;;;;;;;;5044694;28;19917;-81
2022/08/10 04:48:34;;;;;;;;;;;;;;;;;;5029511;28;19913;-81
2022/08/10 04:51:00;;;;;;;;;;;;;;;;;;5040250;28;19936;-79
2022/08/10 04:53:26;;;;;;;;;;;;;;;;;;5043757;28;19913;-80
2022/08/10 04:55:52;;;;;;;;;;;;;;;;;;5044794;28;19917;-79
2022/08/10 04:58:18;;;;;;;;;;;;;;;;;;5043412;28;20611;-81
2022/08/10 05:00:45;;;;;;;;;;;;;;;;;;5047571;28;19936;-79
2022/08/10 05:03:11;;;;;;;;;;;;;;;;;;5047370;28;19921;-81
2022/08/10 05:05:37;;;;;;;;;;;;;;;;;;5045114;28;19925;-79
2022/08/10 05:08:03;;;;;;;;;;;;;;;;;;5047038;28;19917;-79
2022/08/10 05:10:29;;;;;;;;;;;;;;;;;;5047253;28;19913;-81
2022/08/10 05:12:55;;;;;;;;;;;;;;;;;;5046431;28;19917;-80
2022/08/10 05:15:23;;;;;;;;;;;;;;;;;;5047027;28;19917;-81
2022/08/10 05:17:49;;;;;;;;;;;;;;;;;;5045816;28;19912;-80
2022/08/10 05:20:15;;;;;;;;;;;;;;;;;;5044893;28;19913;-81
2022/08/10 05:22:41;;;;;;;;;;;;;;;;;;5044957;28;20545;-81
2022/08/10 05:25:08;;;;;;;;;;;;;;;;;;5047454;28;20262;-80
2022/08/10 05:27:34;;;;;;;;;;;;;;;;;;5043015;28;19913;-80
2022/08/10 05:30:00;;;;;;;;;;;;;;;;;;5032855;28;20406;-80
2022/08/10 05:32:26;;;;;;;;;;;;;;;;;;5039069;28;19923;-80
2022/08/10 05:34:52;;;;;;;;;;;;;;;;;;5049418;28;19913;-80
2022/08/10 05:37:18;;;;;;;;;;;;;;;;;;5048821;28;20400;-82
2022/08/10 05:39:45;;;;;;;;;;;;;;;;;;5048186;28;19920;-81
2022/08/10 05:42:11;;;;;;;;;;;;;;;;;;5054130;28;20383;-79
2022/08/10 05:44:37;;;;;;;;;;;;;;;;;;5047369;28;20026;-81
2022/08/10 05:47:03;;;;;;;;;;;;;;;;;;5031238;28;19921;-82
2022/08/10 05:49:29;;;;;;;;;;;;;;;;;;5051431;28;19917;-81
2022/08/10 05:51:55;;;;;;;;;;;;;;;;;;5044451;28;19915;-83
2022/08/10 05:54:24;;;;;;;;;;;;;;;;;;5046083;28;19912;-82
2022/08/10 05:56:50;;;;;;;;;;;;;;;;;;5044474;28;19913;-82
2022/08/10 05:59:16;;;;;;;;;;;;;;;;;;5044909;28;19923;-82
2022/08/10 06:01:42;;;;;;;;;;;;;;;;;;5051018;28;19917;-79
2022/08/10 06:04:08;;;;;;;;;;;;;;;;;;5049544;28;19943;-80
2022/08/10 06:06:34;;;;;;;;;;;;;;;;;;5044101;28;19921;-81
2022/08/10 06:09:01;;;;;;;;;;;;;;;;;;5027143;28;19921;-81
2022/08/10 06:11:27;;;;;;;;;;;;;;;;;;5051213;28;19919;-80
2022/08/10 06:16:38;;;;;;;;;;;;;;;;;;5044966;28;19912;-80
2022/08/10 06:19:04;;;;;;;;;;;;;;;;;;5050336;28;20439;-79
2022/08/10 06:21:30;;;;;;;;;;;;;;;;;;5042774;28;20534;-79
2022/08/10 06:23:56;;;;;;;;;;;;;;;;;;5042402;28;19936;-79
2022/08/10 06:26:22;;;;;;;;;;;;;;;;;;5039831;28;19924;-82
2022/08/10 06:28:49;;;;;;;;;;;;;;;;;;5050515;28;19909;-81
2022/08/10 06:31:15;;;;;;;;;;;;;;;;;;5024462;28;19913;-80
2022/08/10 06:33:41;;;;;;;;;;;;;;;;;;5050170;28;20288;-80
2022/08/10 06:36:07;;;;;;;;;;;;;;;;;;5049316;28;19913;-80
2022/08/10 06:38:33;;;;;;;;;;;;;;;;;;5049886;28;19913;-81
2022/08/10 06:40:59;;;;;;;;;;;;;;;;;;5054685;28;19916;-80
2022/08/10 06:43:25;;;;;;;;;;;;;;;;;;5044493;28;19919;-81
2022/08/10 06:45:55;;;;;;;;;;;;;;;;;;5043689;28;19924;-81
2022/08/10 06:48:21;;;;;;;;;;;;;;;;;;5044955;28;20292;-82
2022/08/10 06:50:47;;;;;;;;;;;;;;;;;;5044299;28;19917;-82
2022/08/10 06:53:13;;;;;;;;;;;;;;;;;;5044637;28;19913;-82
2022/08/10 06:55:40;;;;;;;;;;;;;;;;;;5048113;28;19934;-82
2022/08/10 06:58:06;;;;;;;;;;;;;;;;;;5046849;28;19923;-84
2022/08/10 07:00:32;;;;;;;;;;;;;;;;;;5048429;28;19921;-83
2022/08/10 07:02:58;;;;;;;;;;;;;;;;;;5049962;28;19917;-81
2022/08/10 07:05:25;;;;;;;;;;;;;;;;;;5048910;28;19913;-83
2022/08/10 07:07:51;;;;;;;;;;;;;;;;;;5031013;28;19920;-82
2022/08/10 07:10:17;;;;;;;;;;;;;;;;;;5044968;28;20364;-83
2022/08/10 07:12:43;;;;;;;;;;;;;;;;;;5047830;28;20277;-82
2022/08/10 07:15:09;;;;;;;;;;;;;;;;;;5049114;28;19913;-83
2022/08/10 07:17:35;;;;;;;;;;;;;;;;;;5045888;28;19913;-82
2022/08/10 07:20:02;;;;;;;;;;;;;;;;;;5044881;28;20037;-82
2022/08/10 07:22:28;;;;;;;;;;;;;;;;;;5046374;28;19912;-82
2022/08/10 07:24:54;;;;;;;;;;;;;;;;;;5046922;28;19923;-81
2022/08/10 07:27:20;;;;;;;;;;;;;;;;;;5045040;28;19992;-81
2022/08/10 07:29:46;;;;;;;;;;;;;;;;;;5044295;28;19919;-82
2022/08/10 07:32:12;;;;;;;;;;;;;;;;;;5046658;28;19920;-82
2022/08/10 07:34:39;;;;;;;;;;;;;;;;;;5047419;28;19909;-83
2022/08/10 07:37:05;;;;;;;;;;;;;;;;;;5040378;28;20319;-83
2022/08/10 07:39:31;;;;;;;;;;;;;;;;;;5048396;28;19919;-81
2022/08/10 07:41:57;;;;;;;;;;;;;;;;;;5028328;28;19913;-83
2022/08/10 07:44:25;;;;;;;;;;;;;;;;;;5046990;28;19913;-82
2022/08/10 07:46:51;;;;;;;;;;;;;;;;;;5039487;28;19924;-81
2022/08/10 07:49:17;;;;;;;;;;;;;;;;;;5044804;28;19927;-84
2022/08/10 07:51:43;;;;;;;;;;;;;;;;;;5042872;28;19913;-83
2022/08/10 07:54:14;;;;;;;;;;;;;;;;;;5048570;28;19909;-82
2022/08/10 07:56:40;;;;;;;;;;;;;;;;;;5029700;28;19913;-83
2022/08/10 07:59:07;;;;;;;;;;;;;;;;;;5047366;28;20305;-83
2022/08/10 08:01:33;;;;;;;;;;;;;;;;;;5043020;28;19909;-83
2022/08/10 08:03:59;;;;;;;;;;;;;;;;;;5044770;28;19921;-83
2022/08/10 08:06:26;;;;;;;;;;;;;;;;;;5050538;28;20395;-83
2022/08/10 08:08:53;;;;;;;;;;;;;;;;;;5045714;28;20015;-80
2022/08/10 08:11:19;;;;;;;;;;;;;;;;;;5044605;28;19924;-81
2022/08/10 08:13:46;;;;;;;;;;;;;;;;;;5024626;28;19921;-79
2022/08/10 08:16:12;;;;;;;;;;;;;;;;;;5042590;28;19925;-79
2022/08/10 08:18:38;;;;;;;;;;;;;;;;;;5045786;28;19948;-79
2022/08/10 08:21:04;;;;;;;;;;;;;;;;;;5042188;28;19955;-79
2022/08/10 08:23:31;;;;;;;;;;;;;;;;;;5027860;28;19967;-78
2022/08/10 08:25:57;;;;;;;;;;;;;;;;;;5044299;28;19960;-80
2022/08/10 08:28:23;;;;;;;;;;;;;;;;;;5041919;28;19927;-79
2022/08/10 08:30:49;;;;;;;;;;;;;;;;;;5039606;28;20369;-78
2022/08/10 08:33:15;;;;;;;;;;;;;;;;;;5036465;28;19971;-79
2022/08/10 08:35:42;;;;;;;;;;;;;;;;;;5045442;28;19945;-79
2022/08/10 08:38:08;;;;;;;;;;;;;;;;;;5043051;28;19968;-79
2022/08/10 08:40:35;;;;;;;;;;;;;;;;;;5046118;28;20040;-79
2022/08/10 08:43:02;;;;;;;;;;;;;;;;;;5037739;28;19952;-79
2022/08/10 08:45:28;;;;;;;;;;;;;;;;;;5044800;28;19956;-79
2022/08/10 08:47:54;;;;;;;;;;;;;;;;;;5043185;28;20396;-77
2022/08/10 08:50:20;;;;;;;;;;;;;;;;;;5043898;28;19967;-79
2022/08/10 08:52:46;;;;;;;;;;;;;;;;;;5041620;28;19956;-79
2022/08/10 08:55:13;;;;;;;;;;;;;;;;;;5037390;28;19955;-79
2022/08/10 08:57:39;;;;;;;;;;;;;;;;;;5044852;28;19956;-79
2022/08/10 09:00:05;;;;;;;;;;;;;;;;;;5040874;28;20428;-80
2022/08/10 09:02:31;;;;;;;;;;;;;;;;;;5043412;28;19948;-80
2022/08/10 09:04:57;;;;;;;;;;;;;;;;;;5039893;28;20004;-78
2022/08/10 09:07:24;;;;;;;;;;;;;;;;;;5045630;28;19972;-79
2022/08/10 09:09:50;;;;;;;;;;;;;;;;;;5049796;28;19960;-79
2022/08/10 09:12:16;;;;;;;;;;;;;;;;;;5048148;28;19963;-79
2022/08/10 09:14:45;;;;;;;;;;;;;;;;;;5044255;28;20644;-79
2022/08/10 09:17:11;;;;;;;;;;;;;;;;;;5034752;28;19952;-80
2022/08/10 09:19:38;;;;;;;;;;;;;;;;;;5046107;28;19974;-79
2022/08/10 09:22:04;;;;;;;;;;;;;;;;;;5028011;28;19948;-79
2022/08/10 09:24:30;;;;;;;;;;;;;;;;;;5048285;28;19919;-79
2022/08/10 09:26:56;;;;;;;;;;;;;;;;;;5044527;28;20021;-78
2022/08/10 09:29:23;;;;;;;;;;;;;;;;;;5047773;28;19939;-80
2022/08/10 09:31:49;;;;;;;;;;;;;;;;;;5044748;28;19948;-80
2022/08/10 09:34:15;;;;;;;;;;;;;;;;;;5047023;28;20334;-80
2022/08/10 09:36:41;;;;;;;;;;;;;;;;;;5030307;28;19951;-79
2022/08/10 09:39:07;;;;;;;;;;;;;;;;;;5029206;28;19990;-78
2022/08/10 09:41:34;;;;;;;;;;;;;;;;;;5045643;28;19971;-78
2022/08/10 09:44:00;;;;;;;;;;;;;;;;;;5047434;28;19977;-78
2022/08/10 09:46:26;;;;;;;;;;;;;;;;;;5047540;28;19964;-80
2022/08/10 09:48:52;;;;;;;;;;;;;;;;;;5030005;28;19982;-81
2022/08/10 09:51:19;;;;;;;;;;;;;;;;;;5026935;28;20442;-79
2022/08/10 09:53:45;;;;;;;;;;;;;;;;;;5030382;28;19948;-79
2022/08/10 09:56:11;;;;;;;;;;;;;;;;;;5047515;28;20369;-78
2022/08/10 09:58:37;;;;;;;;;;;;;;;;;;5048178;28;20048;-80
2022/08/10 10:01:04;;;;;;;;;;;;;;;;;;5047513;28;19912;-78
2022/08/10 10:03:30;;;;;;;;;;;;;;;;;;5046697;28;19987;-78
2022/08/10 10:05:56;;;;;;;;;;;;;;;;;;5046697;28;20397;-76
2022/08/10 10:08:22;;;;;;;;;;;;;;;;;;5047568;28;19968;-76
2022/08/10 10:10:48;;;;;;;;;;;;;;;;;;5046039;28;19940;-76
2022/08/10 10:13:14;;;;;;;;;;;;;;;;;;5048287;28;19987;-77
2022/08/10 10:15:41;;;;;;;;;;;;;;;;;;5044045;28;19936;-77
2022/08/10 10:18:08;;;;;;;;;;;;;;;;;;5042535;28;20010;-77
2022/08/10 10:20:34;;;;;;;;;;;;;;;;;;5045464;28;19964;-77
2022/08/10 10:23:00;;;;;;;;;;;;;;;;;;5038152;28;20397;-77
2022/08/10 10:25:26;;;;;;;;;;;;;;;;;;5048182;28;19955;-77
2022/08/10 10:27:53;;;;;;;;;;;;;;;;;;5042037;28;19960;-77
2022/08/10 10:30:19;;;;;;;;;;;;;;;;;;5046129;28;19952;-77
2022/08/10 10:32:45;;;;;;;;;;;;;;;;;;5047712;28;19948;-78
2022/08/10 10:35:11;;;;;;;;;;;;;;;;;;5025095;28;19951;-77
2022/08/10 10:37:37;;;;;;;;;;;;;;;;;;5037122;28;19971;-79
2022/08/10 10:40:03;;;;;;;;;;;;;;;;;;5042293;28;20411;-79
2022/08/10 10:42:30;;;;;;;;;;;;;;;;;;5046131;28;19980;-78
2022/08/10 10:44:56;;;;;;;;;;;;;;;;;;5043193;28;19953;-76
2022/08/10 10:47:22;;;;;;;;;;;;;;;;;;5048114;28;19960;-79
2022/08/10 10:49:49;;;;;;;;;;;;;;;;;;5024589;28;20400;-78
2022/08/10 10:52:15;;;;;;;;;;;;;;;;;;5043227;28;19970;-77
2022/08/10 10:54:41;;;;;;;;;;;;;;;;;;5037801;28;19957;-77
2022/08/10 10:57:07;;;;;;;;;;;;;;;;;;5044822;28;19967;-77
2022/08/10 10:59:34;;;;;;;;;;;;;;;;;;5030167;28;20501;-78
2022/08/10 11:02:00;;;;;;;;;;;;;;;;;;5043604;28;19963;-78
2022/08/10 11:04:27;;;;;;;;;;;;;;;;;;5045345;28;19964;-78
2022/08/10 11:06:53;;;;;;;;;;;;;;;;;;5041925;28;19929;-79
2022/08/10 11:09:19;;;;;;;;;;;;;;;;;;5042545;28;20396;-78
2022/08/10 11:11:45;;;;;;;;;;;;;;;;;;5045798;28;19940;-78
2022/08/10 11:14:12;;;;;;;;;;;;;;;;;;5045361;28;19988;-79
2022/08/10 11:16:42;;;;;;;;;;;;;;;;;;5046957;28;19952;-78
2022/08/10 11:19:08;;;;;;;;;;;;;;;;;;5044780;28;19948;-78
2022/08/10 11:21:34;;;;;;;;;;;;;;;;;;5027458;28;19944;-78
2022/08/10 11:24:00;;;;;;;;;;;;;;;;;;5043897;28;19967;-78
2022/08/10 11:26:27;;;;;;;;;;;;;;;;;;5044129;28;19964;-78
2022/08/10 11:28:53;;;;;;;;;;;;;;;;;;5041635;28;19979;-78
2022/08/10 11:31:19;;;;;;;;;;;;;;;;;;5043691;28;19952;-79
2022/08/10 11:33:45;;;;;;;;;;;;;;;;;;5019445;28;19960;-79
2022/08/10 11:36:11;;;;;;;;;;;;;;;;;;5040379;28;19956;-78
2022/08/10 11:38:38;;;;;;;;;;;;;;;;;;5043463;28;20377;-77
2022/08/10 11:41:04;;;;;;;;;;;;;;;;;;5033220;28;20579;-78
2022/08/10 11:43:30;;;;;;;;;;;;;;;;;;5044075;28;19913;-79
2022/08/10 11:45:56;;;;;;;;;;;;;;;;;;5044667;28;19952;-77
2022/08/10 11:48:23;;;;;;;;;;;;;;;;;;5043984;28;19921;-81
2022/08/10 11:50:49;;;;;;;;;;;;;;;;;;5025442;28;19999;-81
2022/08/10 11:53:16;;;;;;;;;;;;;;;;;;5025297;28;19956;-81
2022/08/10 11:55:42;;;;;;;;;;;;;;;;;;5042008;28;19963;-81
2022/08/10 12:00:53;;;;;;;;;;;;;;;;;;5041116;28;19960;-80
2022/08/10 12:03:19;;;;;;;;;;;;;;;;;;5026246;28;19956;-80
2022/08/10 12:05:45;;;;;;;;;;;;;;;;;;5039907;28;20357;-81
2022/08/10 12:08:12;;;;;;;;;;;;;;;;;;5044923;28;19959;-81
2022/08/10 12:10:38;;;;;;;;;;;;;;;;;;5046239;28;19921;-80
2022/08/10 12:13:04;;;;;;;;;;;;;;;;;;5044658;28;19948;-80
2022/08/10 12:15:32;;;;;;;;;;;;;;;;;;5046159;28;19923;-79
2022/08/10 12:17:59;;;;;;;;;;;;;;;;;;5045096;28;19999;-81
2022/08/10 12:20:25;;;;;;;;;;;;;;;;;;5021162;28;19953;-80
2022/08/10 12:22:53;;;;;;;;;;;;;;;;;;5042146;28;20533;-79
2022/08/10 12:25:20;;;;;;;;;;;;;;;;;;5042555;28;19956;-80
2022/08/10 12:27:46;;;;;;;;;;;;;;;;;;5039975;28;20345;-79
2022/08/10 12:30:13;;;;;;;;;;;;;;;;;;5043014;28;19917;-80
2022/08/10 12:32:39;;;;;;;;;;;;;;;;;;5043622;28;19956;-81
2022/08/10 12:35:05;;;;;;;;;;;;;;;;;;5023535;28;20645;-80
2022/08/10 12:37:31;;;;;;;;;;;;;;;;;;5039717;28;19996;-79
2022/08/10 12:39:57;;;;;;;;;;;;;;;;;;5044748;28;20093;-79
2022/08/10 12:42:24;;;;;;;;;;;;;;;;;;5045574;28;19955;-79
2022/08/10 12:44:50;;;;;;;;;;;;;;;;;;5045637;28;20329;-80
2022/08/10 12:47:16;;;;;;;;;;;;;;;;;;5029681;28;19956;-81
2022/08/10 12:49:42;;;;;;;;;;;;;;;;;;5046621;28;19967;-79
2022/08/10 12:52:08;;;;;;;;;;;;;;;;;;5028241;28;19940;-79
2022/08/10 12:54:35;;;;;;;;;;;;;;;;;;5049460;28;19956;-80
2022/08/10 12:57:01;;;;;;;;;;;;;;;;;;5039729;28;19945;-80
2022/08/10 12:59:27;;;;;;;;;;;;;;;;;;5045711;28;19959;-80
2022/08/10 13:01:54;;;;;;;;;;;;;;;;;;5050494;28;19975;-81
2022/08/10 13:04:20;;;;;;;;;;;;;;;;;;5028835;28;20423;-81
2022/08/10 13:06:48;;;;;;;;;;;;;;;;;;5051650;28;20002;-81
2022/08/10 13:09:14;;;;;;;;;;;;;;;;;;5014153;28;19968;-81
2022/08/10 13:11:41;;;;;;;;;;;;;;;;;;5049230;28;19975;-80
2022/08/10 13:14:08;;;;;;;;;;;;;;;;;;5031457;28;19964;-80
2022/08/10 13:16:34;;;;;;;;;;;;;;;;;;5025218;28;19972;-80
2022/08/10 13:19:01;;;;;;;;;;;;;;;;;;5045711;28;20440;-81
2022/08/10 13:21:27;;;;;;;;;;;;;;;;;;5049859;28;19953;-80
2022/08/10 13:23:56;;;;;;;;;;;;;;;;;;5043513;28;20369;-79
2022/08/10 13:26:25;;;;;;;;;;;;;;;;;;5038975;28;19921;-80
2022/08/10 13:28:51;;;;;;;;;;;;;;;;;;5030553;28;19949;-81
2022/08/10 13:31:17;;;;;;;;;;;;;;;;;;5045935;28;19963;-81
2022/08/10 13:33:43;;;;;;;;;;;;;;;;;;5041655;28;19920;-81
2022/08/10 13:36:10;;;;;;;;;;;;;;;;;;5044504;28;20025;-82
2022/08/10 13:38:36;;;;;;;;;;;;;;;;;;5049121;28;19952;-81
2022/08/10 13:41:02;;;;;;;;;;;;;;;;;;5047246;28;20014;-80
2022/08/10 13:43:28;;;;;;;;;;;;;;;;;;5040222;28;19956;-81
2022/08/10 13:45:54;;;;;;;;;;;;;;;;;;5047752;28;19955;-80
2022/08/10 13:48:21;;;;;;;;;;;;;;;;;;5047340;28;19952;-80
2022/08/10 13:50:47;;;;;;;;;;;;;;;;;;5045445;28;20789;-80
2022/08/10 13:53:13;;;;;;;;;;;;;;;;;;5047435;28;19948;-80
2022/08/10 13:55:39;;;;;;;;;;;;;;;;;;5039533;28;19983;-83
2022/08/10 13:58:05;;;;;;;;;;;;;;;;;;5030712;28;19963;-81
2022/08/10 14:00:32;;;;;;;;;;;;;;;;;;5025181;28;20311;-83
2022/08/10 14:02:58;;;;;;;;;;;;;;;;;;5046544;28;19961;-81
2022/08/10 14:05:24;;;;;;;;;;;;;;;;;;5026354;28;19944;-81
2022/08/10 14:07:50;;;;;;;;;;;;;;;;;;5043622;28;19960;-80
2022/08/10 14:10:16;;;;;;;;;;;;;;;;;;5043572;28;19964;-80
2022/08/10 14:12:43;;;;;;;;;;;;;;;;;;5045138;28;19953;-80
2022/08/10 14:15:09;;;;;;;;;;;;;;;;;;5046813;28;20045;-81
2022/08/10 14:17:36;;;;;;;;;;;;;;;;;;5045903;28;19945;-80
2022/08/10 14:20:02;;;;;;;;;;;;;;;;;;5044965;28;20034;-80
2022/08/10 14:22:28;;;;;;;;;;;;;;;;;;5046301;28;20020;-79
2022/08/10 14:24:55;;;;;;;;;;;;;;;;;;5045189;28;19913;-79
2022/08/10 14:27:21;;;;;;;;;;;;;;;;;;5047385;28;19963;-82
2022/08/10 14:29:47;;;;;;;;;;;;;;;;;;5046509;28;20029;-81
2022/08/10 14:32:13;;;;;;;;;;;;;;;;;;5047070;28;19956;-81
2022/08/10 14:34:40;;;;;;;;;;;;;;;;;;5028007;28;20314;-80
2022/08/10 14:37:06;;;;;;;;;;;;;;;;;;5046887;28;20036;-78
2022/08/10 14:39:33;;;;;;;;;;;;;;;;;;5028691;28;19960;-80
2022/08/10 14:41:59;;;;;;;;;;;;;;;;;;5048065;28;19955;-81
2022/08/10 14:44:25;;;;;;;;;;;;;;;;;;5047441;28;19964;-80
2022/08/10 14:46:51;;;;;;;;;;;;;;;;;;5047620;28;19998;-80
2022/08/10 14:49:17;;;;;;;;;;;;;;;;;;5028067;28;19963;-79
2022/08/10 14:51:44;;;;;;;;;;;;;;;;;;5040474;28;20393;-80
2022/08/10 14:54:13;;;;;;;;;;;;;;;;;;5045878;28;20032;-81
2022/08/10 14:56:39;;;;;;;;;;;;;;;;;;5044767;28;19952;-81
2022/08/10 14:59:06;;;;;;;;;;;;;;;;;;5038342;28;20321;-82
2022/08/10 15:01:33;;;;;;;;;;;;;;;;;;5047912;28;19928;-77
2022/08/10 15:03:59;;;;;;;;;;;;;;;;;;5044861;28;20399;-77
2022/08/10 15:06:25;;;;;;;;;;;;;;;;;;5046544;28;19960;-86
2022/08/10 15:08:51;;;;;;;;;;;;;;;;;;5049197;28;19932;-84
2022/08/10 15:11:17;;;;;;;;;;;;;;;;;;5044624;28;19952;-84
2022/08/10 15:13:44;;;;;;;;;;;;;;;;;;5044372;28;19920;-84
2022/08/10 15:16:10;;;;;;;;;;;;;;;;;;5047618;28;19952;-83
2022/08/10 15:18:38;;;;;;;;;;;;;;;;;;5047096;28;19944;-83
2022/08/10 15:21:04;;;;;;;;;;;;;;;;;;5046275;28;19932;-84
2022/08/10 15:23:30;;;;;;;;;;;;;;;;;;5043419;28;19937;-84
2022/08/10 15:25:57;;;;;;;;;;;;;;;;;;5040705;28;19944;-82
2022/08/10 15:28:23;;;;;;;;;;;;;;;;;;5045644;28;19972;-85
2022/08/10 15:30:49;;;;;;;;;;;;;;;;;;5046827;28;19964;-85
2022/08/10 15:38:45;;;;;;;;;;;;;;;;;;5045537;28;19941;-84
2022/08/10 15:41:11;;;;;;;;;;;;;;;;;;5028018;28;19948;-84
2022/08/10 15:43:38;;;;;;;;;;;;;;;;;;5047876;28;19952;-84
2022/08/10 15:46:04;;;;;;;;;;;;;;;;;;5045613;28;20110;-85
2022/08/10 15:48:30;;;;;;;;;;;;;;;;;;5047845;28;19967;-83
2022/08/10 15:50:56;;;;;;;;;;;;;;;;;;5022712;28;20018;-86
2022/08/10 15:53:22;;;;;;;;;;;;;;;;;;5048824;28;19923;-84
2022/08/10 15:55:49;;;;;;;;;;;;;;;;;;5048466;28;19994;-84
2022/08/10 15:58:15;;;;;;;;;;;;;;;;;;5049486;28;19917;-85
2022/08/10 16:00:41;;;;;;;;;;;;;;;;;;5052972;28;19927;-84
2022/08/10 16:03:08;;;;;;;;;;;;;;;;;;5051057;28;19924;-83
2022/08/10 16:05:34;;;;;;;;;;;;;;;;;;5033060;28;19970;-85
2022/08/10 16:08:00;;;;;;;;;;;;;;;;;;5044035;28;20294;-85
2022/08/10 16:10:26;;;;;;;;;;;;;;;;;;5050882;28;19972;-84
2022/08/10 16:12:52;;;;;;;;;;;;;;;;;;5048994;28;20475;-84
2022/08/10 16:15:21;;;;;;;;;;;;;;;;;;5047808;28;19952;-83
2022/08/10 16:17:47;;;;;;;;;;;;;;;;;;5045512;28;19964;-84
2022/08/10 16:20:14;;;;;;;;;;;;;;;;;;5045068;28;19912;-85
2022/08/10 16:22:40;;;;;;;;;;;;;;;;;;5041838;28;19944;-85
2022/08/10 16:25:06;;;;;;;;;;;;;;;;;;5038163;28;19976;-83
2022/08/10 16:27:33;;;;;;;;;;;;;;;;;;5040545;28;20026;-84
2022/08/10 16:29:59;;;;;;;;;;;;;;;;;;5037387;28;20404;-84
2022/08/10 16:32:25;;;;;;;;;;;;;;;;;;5052337;28;19917;-83
2022/08/10 16:34:51;;;;;;;;;;;;;;;;;;5057466;28;19932;-85
2022/08/10 16:37:17;;;;;;;;;;;;;;;;;;5032985;28;20423;-84
2022/08/10 16:39:45;;;;;;;;;;;;;;;;;;5038864;28;19936;-83
2022/08/10 16:42:11;;;;;;;;;;;;;;;;;;5055308;28;19913;-82
2022/08/10 16:44:37;;;;;;;;;;;;;;;;;;5060373;28;19924;-84
2022/08/10 16:47:04;;;;;;;;;;;;;;;;;;5051963;28;19917;-84
2022/08/10 16:49:30;;;;;;;;;;;;;;;;;;5046861;28;19945;-84
2022/08/10 16:51:56;;;;;;;;;;;;;;;;;;5021508;28;20309;-84